KFDY

Findlay Airport

Findlay, Ohio, USA
METAR KFDY 241153Z AUTO 05010KT 9SM -RA OVC007 04/02 A3018 RMK AO2 SLP220 P0003 60016 70020 T00440017 10078 20044 55011
Observed Flight Rules
Feb-24 @ 11:53 UTC (27 minutes ago) Instrument Flight Rules
Wind Visibility Clouds Conditions
50° at 10 knots 9 miles
  • Overcast at 700' AGL
  • Light Rain
Temperatures Readings Precipitation
Current 4°C / 39°F
Dewpoint 2°C / 36°F
Humidity 87%
Altimeter 30.18" Hg
Pressure 1022 hPa
Elevation 247
Current Rain 0.03
METAR KFDY 241153Z AUTO 05010KT 9SM -RA OVC007 04/02 A3018 RMK AO2 SLP220 P0003 60016 70020 T00440017 10078 20044 55011
Observed Flight Rules
Feb-24 @ 11:53 UTC
(27 minutes ago)
IFR
Wind Visibility
50° at 10 knots 9 miles
Clouds
  • Overcast at 700' AGL
Conditions
  • Light Rain
Temperature Dewpoint
4°C / 39°F 2°C / 36°F
Humidity Altimeter Pressure
87% 30.18" Hg 1022 hPa
Current Rain
0.03